sensor_id;sensor_type;location;lat;lon;timestamp;P1;durP1;ratioP1;P2;durP2;ratioP2
3916;SDS011;1973;50.518;7.318;2023-12-04T00:01:50;19.13;;;12.43;;
3916;SDS011;1973;50.518;7.318;2023-12-04T00:04:17;17.33;;;12.00;;
3916;SDS011;1973;50.518;7.318;2023-12-04T00:06:43;20.60;;;11.00;;
3916;SDS011;1973;50.518;7.318;2023-12-04T00:09:10;18.63;;;10.83;;
3916;SDS011;1973;50.518;7.318;2023-12-04T00:11:37;17.50;;;10.93;;
3916;SDS011;1973;50.518;7.318;2023-12-04T00:14:03;16.60;;;10.63;;
3916;SDS011;1973;50.518;7.318;2023-12-04T00:16:33;19.40;;;12.23;;
3916;SDS011;1973;50.518;7.318;2023-12-04T00:19:00;17.37;;;11.77;;
3916;SDS011;1973;50.518;7.318;2023-12-04T00:21:26;14.47;;;10.17;;
3916;SDS011;1973;50.518;7.318;2023-12-04T00:23:53;16.73;;;10.90;;
3916;SDS011;1973;50.518;7.318;2023-12-04T00:26:20;19.10;;;11.80;;
3916;SDS011;1973;50.518;7.318;2023-12-04T00:28:46;18.17;;;11.33;;
3916;SDS011;1973;50.518;7.318;2023-12-04T00:31:13;16.93;;;11.23;;
3916;SDS011;1973;50.518;7.318;2023-12-04T00:33:39;17.10;;;11.73;;
3916;SDS011;1973;50.518;7.318;2023-12-04T00:36:06;15.13;;;11.00;;
3916;SDS011;1973;50.518;7.318;2023-12-04T00:38:33;15.23;;;10.57;;
3916;SDS011;1973;50.518;7.318;2023-12-04T00:40:59;14.67;;;10.30;;
3916;SDS011;1973;50.518;7.318;2023-12-04T00:43:26;20.60;;;11.50;;
3916;SDS011;1973;50.518;7.318;2023-12-04T00:45:52;15.53;;;11.53;;
3916;SDS011;1973;50.518;7.318;2023-12-04T00:48:19;15.90;;;10.87;;
3916;SDS011;1973;50.518;7.318;2023-12-04T00:50:46;19.53;;;13.37;;
3916;SDS011;1973;50.518;7.318;2023-12-04T00:53:12;17.53;;;10.50;;
3916;SDS011;1973;50.518;7.318;2023-12-04T00:55:39;15.87;;;10.57;;
3916;SDS011;1973;50.518;7.318;2023-12-04T00:58:06;14.13;;;10.00;;
3916;SDS011;1973;50.518;7.318;2023-12-04T01:00:32;15.70;;;11.07;;
3916;SDS011;1973;50.518;7.318;2023-12-04T01:02:59;18.60;;;12.23;;
3916;SDS011;1973;50.518;7.318;2023-12-04T01:05:25;14.27;;;9.77;;
3916;SDS011;1973;50.518;7.318;2023-12-04T01:07:52;15.40;;;10.20;;
3916;SDS011;1973;50.518;7.318;2023-12-04T01:10:18;14.27;;;10.53;;
3916;SDS011;1973;50.518;7.318;2023-12-04T01:12:45;13.53;;;9.77;;
3916;SDS011;1973;50.518;7.318;2023-12-04T01:15:11;16.80;;;11.43;;
3916;SDS011;1973;50.518;7.318;2023-12-04T01:17:38;15.43;;;9.90;;
3916;SDS011;1973;50.518;7.318;2023-12-04T01:20:05;16.50;;;11.03;;
3916;SDS011;1973;50.518;7.318;2023-12-04T01:22:32;17.53;;;11.87;;
3916;SDS011;1973;50.518;7.318;2023-12-04T01:24:59;14.20;;;10.37;;
3916;SDS011;1973;50.518;7.318;2023-12-04T01:27:25;16.90;;;10.70;;
3916;SDS011;1973;50.518;7.318;2023-12-04T01:29:52;14.53;;;11.13;;
3916;SDS011;1973;50.518;7.318;2023-12-04T01:32:19;19.63;;;11.90;;
3916;SDS011;1973;50.518;7.318;2023-12-04T01:34:45;16.67;;;12.00;;
3916;SDS011;1973;50.518;7.318;2023-12-04T01:37:11;19.23;;;12.73;;
3916;SDS011;1973;50.518;7.318;2023-12-04T01:39:38;18.00;;;12.10;;
3916;SDS011;1973;50.518;7.318;2023-12-04T01:42:05;15.97;;;11.30;;
3916;SDS011;1973;50.518;7.318;2023-12-04T01:44:31;21.20;;;13.50;;
3916;SDS011;1973;50.518;7.318;2023-12-04T01:46:58;17.70;;;12.00;;
3916;SDS011;1973;50.518;7.318;2023-12-04T01:49:24;19.20;;;12.10;;
3916;SDS011;1973;50.518;7.318;2023-12-04T01:51:51;21.17;;;14.60;;
3916;SDS011;1973;50.518;7.318;2023-12-04T01:54:18;17.57;;;11.80;;
3916;SDS011;1973;50.518;7.318;2023-12-04T01:56:45;16.90;;;12.30;;
3916;SDS011;1973;50.518;7.318;2023-12-04T01:59:13;18.37;;;13.50;;
3916;SDS011;1973;50.518;7.318;2023-12-04T02:01:39;18.43;;;12.70;;
3916;SDS011;1973;50.518;7.318;2023-12-04T02:04:06;17.33;;;12.10;;
3916;SDS011;1973;50.518;7.318;2023-12-04T02:06:34;16.43;;;11.77;;
3916;SDS011;1973;50.518;7.318;2023-12-04T02:09:01;19.07;;;11.60;;
3916;SDS011;1973;50.518;7.318;2023-12-04T02:11:27;18.37;;;11.60;;
3916;SDS011;1973;50.518;7.318;2023-12-04T02:13:54;18.10;;;11.80;;
3916;SDS011;1973;50.518;7.318;2023-12-04T02:16:21;18.30;;;12.70;;
3916;SDS011;1973;50.518;7.318;2023-12-04T02:18:52;20.10;;;12.53;;
3916;SDS011;1973;50.518;7.318;2023-12-04T02:21:19;19.77;;;13.30;;
3916;SDS011;1973;50.518;7.318;2023-12-04T02:23:52;18.17;;;11.77;;
3916;SDS011;1973;50.518;7.318;2023-12-04T02:26:22;18.23;;;13.00;;
3916;SDS011;1973;50.518;7.318;2023-12-04T02:28:55;16.97;;;12.13;;
3916;SDS011;1973;50.518;7.318;2023-12-04T02:31:27;17.37;;;12.33;;
3916;SDS011;1973;50.518;7.318;2023-12-04T02:33:56;21.83;;;12.47;;
3916;SDS011;1973;50.518;7.318;2023-12-04T02:36:25;19.50;;;11.47;;
3916;SDS011;1973;50.518;7.318;2023-12-04T02:38:53;17.70;;;12.33;;
3916;SDS011;1973;50.518;7.318;2023-12-04T02:41:21;16.07;;;10.93;;
3916;SDS011;1973;50.518;7.318;2023-12-04T02:43:47;18.97;;;12.53;;
3916;SDS011;1973;50.518;7.318;2023-12-04T02:46:14;15.70;;;11.30;;
3916;SDS011;1973;50.518;7.318;2023-12-04T02:48:41;17.60;;;11.93;;
3916;SDS011;1973;50.518;7.318;2023-12-04T02:51:08;18.50;;;11.97;;
3916;SDS011;1973;50.518;7.318;2023-12-04T02:53:35;19.80;;;12.00;;
3916;SDS011;1973;50.518;7.318;2023-12-04T02:56:01;17.33;;;12.27;;
3916;SDS011;1973;50.518;7.318;2023-12-04T02:58:28;17.77;;;13.27;;
3916;SDS011;1973;50.518;7.318;2023-12-04T03:00:54;19.77;;;12.13;;
3916;SDS011;1973;50.518;7.318;2023-12-04T03:03:21;20.83;;;12.60;;
3916;SDS011;1973;50.518;7.318;2023-12-04T03:05:47;20.97;;;13.37;;
3916;SDS011;1973;50.518;7.318;2023-12-04T03:08:14;19.73;;;12.53;;
3916;SDS011;1973;50.518;7.318;2023-12-04T03:10:40;20.67;;;12.70;;
3916;SDS011;1973;50.518;7.318;2023-12-04T03:13:07;20.87;;;13.33;;
3916;SDS011;1973;50.518;7.318;2023-12-04T03:15:33;16.63;;;11.50;;
3916;SDS011;1973;50.518;7.318;2023-12-04T03:18:01;20.73;;;12.80;;
3916;SDS011;1973;50.518;7.318;2023-12-04T03:20:31;18.67;;;12.40;;
3916;SDS011;1973;50.518;7.318;2023-12-04T03:22:58;18.63;;;12.73;;
3916;SDS011;1973;50.518;7.318;2023-12-04T03:25:25;19.00;;;12.57;;
3916;SDS011;1973;50.518;7.318;2023-12-04T03:27:51;17.57;;;11.40;;
3916;SDS011;1973;50.518;7.318;2023-12-04T03:30:18;18.63;;;12.60;;
3916;SDS011;1973;50.518;7.318;2023-12-04T03:32:46;19.77;;;13.67;;
3916;SDS011;1973;50.518;7.318;2023-12-04T03:35:13;21.03;;;12.47;;
3916;SDS011;1973;50.518;7.318;2023-12-04T03:37:39;19.20;;;13.70;;
3916;SDS011;1973;50.518;7.318;2023-12-04T03:40:06;21.07;;;13.67;;
3916;SDS011;1973;50.518;7.318;2023-12-04T03:42:33;19.87;;;13.97;;
3916;SDS011;1973;50.518;7.318;2023-12-04T03:45:00;21.50;;;12.60;;
3916;SDS011;1973;50.518;7.318;2023-12-04T03:47:27;19.10;;;12.57;;
3916;SDS011;1973;50.518;7.318;2023-12-04T03:49:53;20.73;;;14.13;;
3916;SDS011;1973;50.518;7.318;2023-12-04T03:52:20;21.17;;;13.37;;
3916;SDS011;1973;50.518;7.318;2023-12-04T03:54:46;17.90;;;12.07;;
3916;SDS011;1973;50.518;7.318;2023-12-04T03:57:13;21.10;;;14.17;;
3916;SDS011;1973;50.518;7.318;2023-12-04T03:59:39;21.73;;;14.40;;
3916;SDS011;1973;50.518;7.318;2023-12-04T04:02:06;21.13;;;13.90;;
3916;SDS011;1973;50.518;7.318;2023-12-04T04:04:32;17.60;;;14.00;;
3916;SDS011;1973;50.518;7.318;2023-12-04T04:06:59;17.50;;;12.10;;
3916;SDS011;1973;50.518;7.318;2023-12-04T04:09:25;17.33;;;12.60;;
3916;SDS011;1973;50.518;7.318;2023-12-04T04:11:52;18.40;;;13.20;;
3916;SDS011;1973;50.518;7.318;2023-12-04T04:14:18;19.73;;;12.60;;
3916;SDS011;1973;50.518;7.318;2023-12-04T04:16:45;18.53;;;12.87;;
3916;SDS011;1973;50.518;7.318;2023-12-04T04:19:11;22.27;;;13.60;;
3916;SDS011;1973;50.518;7.318;2023-12-04T04:21:40;17.37;;;12.90;;
3916;SDS011;1973;50.518;7.318;2023-12-04T04:24:07;19.80;;;13.40;;
3916;SDS011;1973;50.518;7.318;2023-12-04T04:26:33;22.17;;;13.60;;
3916;SDS011;1973;50.518;7.318;2023-12-04T04:29:00;17.20;;;12.53;;
3916;SDS011;1973;50.518;7.318;2023-12-04T04:31:26;22.30;;;15.00;;
3916;SDS011;1973;50.518;7.318;2023-12-04T04:33:53;22.30;;;14.80;;
3916;SDS011;1973;50.518;7.318;2023-12-04T04:36:19;19.17;;;14.17;;
3916;SDS011;1973;50.518;7.318;2023-12-04T04:38:46;24.07;;;13.60;;
3916;SDS011;1973;50.518;7.318;2023-12-04T04:41:15;20.73;;;12.57;;
3916;SDS011;1973;50.518;7.318;2023-12-04T04:43:42;20.67;;;13.60;;
3916;SDS011;1973;50.518;7.318;2023-12-04T04:46:09;20.13;;;13.13;;
3916;SDS011;1973;50.518;7.318;2023-12-04T04:48:35;23.13;;;15.17;;
3916;SDS011;1973;50.518;7.318;2023-12-04T04:51:02;19.50;;;13.67;;
3916;SDS011;1973;50.518;7.318;2023-12-04T04:53:29;21.33;;;13.53;;
3916;SDS011;1973;50.518;7.318;2023-12-04T04:55:55;22.90;;;14.80;;
3916;SDS011;1973;50.518;7.318;2023-12-04T04:58:24;20.50;;;13.63;;
3916;SDS011;1973;50.518;7.318;2023-12-04T05:00:50;21.50;;;14.23;;
3916;SDS011;1973;50.518;7.318;2023-12-04T05:03:17;20.60;;;16.10;;
3916;SDS011;1973;50.518;7.318;2023-12-04T05:05:44;18.70;;;13.43;;
3916;SDS011;1973;50.518;7.318;2023-12-04T05:08:10;22.70;;;14.77;;
3916;SDS011;1973;50.518;7.318;2023-12-04T05:10:38;23.43;;;15.70;;
3916;SDS011;1973;50.518;7.318;2023-12-04T05:13:05;21.30;;;14.83;;
3916;SDS011;1973;50.518;7.318;2023-12-04T05:15:31;22.53;;;15.90;;
3916;SDS011;1973;50.518;7.318;2023-12-04T05:17:58;21.70;;;15.43;;
3916;SDS011;1973;50.518;7.318;2023-12-04T05:20:24;19.63;;;14.10;;
3916;SDS011;1973;50.518;7.318;2023-12-04T05:22:51;22.73;;;16.03;;
3916;SDS011;1973;50.518;7.318;2023-12-04T05:25:18;23.67;;;14.97;;
3916;SDS011;1973;50.518;7.318;2023-12-04T05:27:45;20.07;;;14.40;;
3916;SDS011;1973;50.518;7.318;2023-12-04T05:30:15;24.53;;;14.90;;
3916;SDS011;1973;50.518;7.318;2023-12-04T05:32:42;22.80;;;15.23;;
3916;SDS011;1973;50.518;7.318;2023-12-04T05:35:08;21.97;;;13.93;;
3916;SDS011;1973;50.518;7.318;2023-12-04T05:37:35;23.90;;;14.50;;
3916;SDS011;1973;50.518;7.318;2023-12-04T05:40:01;24.33;;;14.63;;
3916;SDS011;1973;50.518;7.318;2023-12-04T05:42:29;25.60;;;16.30;;
3916;SDS011;1973;50.518;7.318;2023-12-04T05:44:56;25.90;;;15.50;;
3916;SDS011;1973;50.518;7.318;2023-12-04T05:47:24;20.37;;;14.73;;
3916;SDS011;1973;50.518;7.318;2023-12-04T05:49:51;21.57;;;15.37;;
3916;SDS011;1973;50.518;7.318;2023-12-04T05:52:18;25.10;;;15.60;;
3916;SDS011;1973;50.518;7.318;2023-12-04T05:54:44;21.00;;;14.83;;
3916;SDS011;1973;50.518;7.318;2023-12-04T05:57:11;22.73;;;14.73;;
3916;SDS011;1973;50.518;7.318;2023-12-04T05:59:37;21.33;;;15.07;;
3916;SDS011;1973;50.518;7.318;2023-12-04T06:02:04;24.90;;;15.70;;
3916;SDS011;1973;50.518;7.318;2023-12-04T06:04:31;26.07;;;16.10;;
3916;SDS011;1973;50.518;7.318;2023-12-04T06:06:57;22.43;;;14.37;;
3916;SDS011;1973;50.518;7.318;2023-12-04T06:09:24;20.57;;;13.40;;
3916;SDS011;1973;50.518;7.318;2023-12-04T06:11:51;22.10;;;15.00;;
3916;SDS011;1973;50.518;7.318;2023-12-04T06:14:17;23.67;;;14.00;;
3916;SDS011;1973;50.518;7.318;2023-12-04T06:16:44;22.70;;;15.10;;
3916;SDS011;1973;50.518;7.318;2023-12-04T06:19:10;18.27;;;13.43;;
3916;SDS011;1973;50.518;7.318;2023-12-04T06:21:37;22.93;;;14.97;;
3916;SDS011;1973;50.518;7.318;2023-12-04T06:24:04;21.63;;;14.40;;
3916;SDS011;1973;50.518;7.318;2023-12-04T06:26:33;19.70;;;12.93;;
3916;SDS011;1973;50.518;7.318;2023-12-04T06:29:02;24.17;;;16.50;;
3916;SDS011;1973;50.518;7.318;2023-12-04T06:31:29;19.00;;;13.30;;
3916;SDS011;1973;50.518;7.318;2023-12-04T06:33:56;19.60;;;13.20;;
3916;SDS011;1973;50.518;7.318;2023-12-04T06:36:22;20.77;;;13.60;;
3916;SDS011;1973;50.518;7.318;2023-12-04T06:38:51;17.10;;;12.40;;
3916;SDS011;1973;50.518;7.318;2023-12-04T06:41:19;18.40;;;13.47;;
3916;SDS011;1973;50.518;7.318;2023-12-04T06:43:47;19.43;;;13.27;;
3916;SDS011;1973;50.518;7.318;2023-12-04T06:46:18;18.23;;;12.90;;
3916;SDS011;1973;50.518;7.318;2023-12-04T06:48:47;19.67;;;12.90;;
3916;SDS011;1973;50.518;7.318;2023-12-04T06:51:14;17.60;;;12.33;;
3916;SDS011;1973;50.518;7.318;2023-12-04T06:53:41;20.83;;;13.60;;
3916;SDS011;1973;50.518;7.318;2023-12-04T06:56:07;22.97;;;15.00;;
3916;SDS011;1973;50.518;7.318;2023-12-04T06:58:34;19.37;;;14.37;;
3916;SDS011;1973;50.518;7.318;2023-12-04T07:01:01;21.00;;;14.60;;
3916;SDS011;1973;50.518;7.318;2023-12-04T07:03:28;23.10;;;13.93;;
3916;SDS011;1973;50.518;7.318;2023-12-04T07:05:55;20.57;;;13.43;;
3916;SDS011;1973;50.518;7.318;2023-12-04T07:08:21;24.70;;;16.80;;
3916;SDS011;1973;50.518;7.318;2023-12-04T07:10:48;20.80;;;14.07;;
3916;SDS011;1973;50.518;7.318;2023-12-04T07:13:15;20.90;;;14.50;;
3916;SDS011;1973;50.518;7.318;2023-12-04T07:15:42;19.73;;;14.13;;
3916;SDS011;1973;50.518;7.318;2023-12-04T07:18:09;18.27;;;12.90;;
3916;SDS011;1973;50.518;7.318;2023-12-04T07:20:35;20.40;;;12.73;;
3916;SDS011;1973;50.518;7.318;2023-12-04T07:23:02;18.80;;;13.33;;
3916;SDS011;1973;50.518;7.318;2023-12-04T07:25:28;24.47;;;15.20;;
3916;SDS011;1973;50.518;7.318;2023-12-04T07:27:55;22.93;;;14.47;;
3916;SDS011;1973;50.518;7.318;2023-12-04T07:30:21;19.93;;;14.40;;
3916;SDS011;1973;50.518;7.318;2023-12-04T07:32:48;17.90;;;12.17;;
3916;SDS011;1973;50.518;7.318;2023-12-04T07:35:14;20.63;;;14.03;;
3916;SDS011;1973;50.518;7.318;2023-12-04T07:37:41;23.67;;;14.80;;
3916;SDS011;1973;50.518;7.318;2023-12-04T07:40:07;18.40;;;12.70;;
3916;SDS011;1973;50.518;7.318;2023-12-04T07:42:36;21.90;;;14.40;;
3916;SDS011;1973;50.518;7.318;2023-12-04T07:45:03;18.03;;;13.07;;
3916;SDS011;1973;50.518;7.318;2023-12-04T07:47:30;18.90;;;13.13;;
3916;SDS011;1973;50.518;7.318;2023-12-04T07:49:56;21.43;;;14.13;;
3916;SDS011;1973;50.518;7.318;2023-12-04T07:52:23;21.07;;;12.00;;
3916;SDS011;1973;50.518;7.318;2023-12-04T07:54:50;18.20;;;13.50;;
3916;SDS011;1973;50.518;7.318;2023-12-04T07:57:16;18.23;;;12.33;;
3916;SDS011;1973;50.518;7.318;2023-12-04T07:59:43;21.67;;;13.40;;
3916;SDS011;1973;50.518;7.318;2023-12-04T08:02:09;19.40;;;12.07;;
3916;SDS011;1973;50.518;7.318;2023-12-04T08:04:36;19.70;;;13.17;;
3916;SDS011;1973;50.518;7.318;2023-12-04T08:07:02;18.17;;;13.13;;
3916;SDS011;1973;50.518;7.318;2023-12-04T08:09:29;16.63;;;11.70;;
3916;SDS011;1973;50.518;7.318;2023-12-04T08:11:56;18.20;;;12.57;;
3916;SDS011;1973;50.518;7.318;2023-12-04T08:14:23;17.20;;;12.27;;
3916;SDS011;1973;50.518;7.318;2023-12-04T08:16:50;16.80;;;11.17;;
3916;SDS011;1973;50.518;7.318;2023-12-04T08:19:17;16.37;;;10.97;;
3916;SDS011;1973;50.518;7.318;2023-12-04T08:21:43;16.27;;;11.07;;
3916;SDS011;1973;50.518;7.318;2023-12-04T08:24:10;15.20;;;11.03;;
3916;SDS011;1973;50.518;7.318;2023-12-04T08:26:37;17.70;;;11.23;;
3916;SDS011;1973;50.518;7.318;2023-12-04T08:29:03;16.53;;;11.37;;
3916;SDS011;1973;50.518;7.318;2023-12-04T08:31:30;16.67;;;11.73;;
3916;SDS011;1973;50.518;7.318;2023-12-04T08:33:56;18.47;;;12.17;;
3916;SDS011;1973;50.518;7.318;2023-12-04T08:36:23;17.90;;;11.57;;
3916;SDS011;1973;50.518;7.318;2023-12-04T08:38:49;17.07;;;10.77;;
3916;SDS011;1973;50.518;7.318;2023-12-04T08:41:16;17.30;;;11.67;;
3916;SDS011;1973;50.518;7.318;2023-12-04T08:43:42;15.73;;;10.37;;
3916;SDS011;1973;50.518;7.318;2023-12-04T08:46:15;15.60;;;11.20;;
3916;SDS011;1973;50.518;7.318;2023-12-04T08:48:41;18.87;;;11.13;;
3916;SDS011;1973;50.518;7.318;2023-12-04T08:51:14;16.07;;;11.00;;
3916;SDS011;1973;50.518;7.318;2023-12-04T08:53:41;16.50;;;11.33;;
3916;SDS011;1973;50.518;7.318;2023-12-04T08:56:08;15.60;;;11.00;;
3916;SDS011;1973;50.518;7.318;2023-12-04T08:58:41;16.03;;;9.97;;
3916;SDS011;1973;50.518;7.318;2023-12-04T09:01:08;15.50;;;10.00;;
3916;SDS011;1973;50.518;7.318;2023-12-04T09:03:34;16.70;;;10.67;;
3916;SDS011;1973;50.518;7.318;2023-12-04T09:06:01;15.47;;;10.83;;
3916;SDS011;1973;50.518;7.318;2023-12-04T09:08:28;17.80;;;14.80;;
3916;SDS011;1973;50.518;7.318;2023-12-04T09:11:05;14.97;;;10.43;;
3916;SDS011;1973;50.518;7.318;2023-12-04T09:13:34;15.07;;;9.80;;
3916;SDS011;1973;50.518;7.318;2023-12-04T09:16:01;14.40;;;9.73;;
3916;SDS011;1973;50.518;7.318;2023-12-04T09:18:27;13.57;;;9.63;;
3916;SDS011;1973;50.518;7.318;2023-12-04T09:20:54;16.53;;;10.40;;
3916;SDS011;1973;50.518;7.318;2023-12-04T09:23:21;14.47;;;10.17;;
3916;SDS011;1973;50.518;7.318;2023-12-04T09:25:47;13.67;;;9.20;;
3916;SDS011;1973;50.518;7.318;2023-12-04T09:28:14;15.53;;;11.13;;
3916;SDS011;1973;50.518;7.318;2023-12-04T09:30:40;15.53;;;12.47;;
3916;SDS011;1973;50.518;7.318;2023-12-04T09:33:07;16.13;;;11.60;;
3916;SDS011;1973;50.518;7.318;2023-12-04T09:35:34;15.37;;;10.80;;
3916;SDS011;1973;50.518;7.318;2023-12-04T09:38:00;13.97;;;10.23;;
3916;SDS011;1973;50.518;7.318;2023-12-04T09:40:27;15.53;;;10.70;;
3916;SDS011;1973;50.518;7.318;2023-12-04T09:42:53;14.50;;;10.10;;
3916;SDS011;1973;50.518;7.318;2023-12-04T09:45:20;15.50;;;9.80;;
3916;SDS011;1973;50.518;7.318;2023-12-04T09:47:51;12.00;;;9.30;;
3916;SDS011;1973;50.518;7.318;2023-12-04T09:50:18;15.50;;;10.27;;
3916;SDS011;1973;50.518;7.318;2023-12-04T09:52:48;13.43;;;9.40;;
3916;SDS011;1973;50.518;7.318;2023-12-04T09:55:16;12.90;;;8.90;;
3916;SDS011;1973;50.518;7.318;2023-12-04T09:57:46;14.97;;;9.50;;
3916;SDS011;1973;50.518;7.318;2023-12-04T10:00:13;12.23;;;8.30;;
3916;SDS011;1973;50.518;7.318;2023-12-04T10:02:41;13.97;;;9.97;;
3916;SDS011;1973;50.518;7.318;2023-12-04T10:05:08;15.77;;;9.50;;
3916;SDS011;1973;50.518;7.318;2023-12-04T10:07:35;15.03;;;10.13;;
3916;SDS011;1973;50.518;7.318;2023-12-04T10:10:03;16.60;;;9.83;;
3916;SDS011;1973;50.518;7.318;2023-12-04T10:12:35;15.57;;;10.83;;
3916;SDS011;1973;50.518;7.318;2023-12-04T10:17:38;13.47;;;9.60;;
3916;SDS011;1973;50.518;7.318;2023-12-04T10:20:24;13.20;;;10.00;;
3916;SDS011;1973;50.518;7.318;2023-12-04T10:22:58;16.00;;;9.60;;
3916;SDS011;1973;50.518;7.318;2023-12-04T10:25:27;15.77;;;9.97;;
3916;SDS011;1973;50.518;7.318;2023-12-04T10:28:09;14.20;;;9.70;;
3916;SDS011;1973;50.518;7.318;2023-12-04T10:30:37;12.63;;;8.70;;
3916;SDS011;1973;50.518;7.318;2023-12-04T10:33:05;14.60;;;9.70;;
3916;SDS011;1973;50.518;7.318;2023-12-04T10:35:34;15.87;;;10.27;;
3916;SDS011;1973;50.518;7.318;2023-12-04T10:38:04;14.23;;;10.13;;
3916;SDS011;1973;50.518;7.318;2023-12-04T10:40:32;13.87;;;9.80;;
3916;SDS011;1973;50.518;7.318;2023-12-04T10:43:14;14.90;;;9.50;;
3916;SDS011;1973;50.518;7.318;2023-12-04T10:45:43;16.50;;;10.50;;
3916;SDS011;1973;50.518;7.318;2023-12-04T10:48:12;13.80;;;10.40;;
3916;SDS011;1973;50.518;7.318;2023-12-04T10:50:41;14.50;;;9.57;;
3916;SDS011;1973;50.518;7.318;2023-12-04T10:53:13;14.27;;;9.97;;
3916;SDS011;1973;50.518;7.318;2023-12-04T10:55:41;12.93;;;9.17;;
3916;SDS011;1973;50.518;7.318;2023-12-04T10:58:12;15.30;;;10.43;;
3916;SDS011;1973;50.518;7.318;2023-12-04T11:00:42;15.10;;;10.03;;
3916;SDS011;1973;50.518;7.318;2023-12-04T11:03:21;15.40;;;10.20;;
3916;SDS011;1973;50.518;7.318;2023-12-04T11:05:55;15.10;;;9.83;;
3916;SDS011;1973;50.518;7.318;2023-12-04T11:08:26;12.13;;;9.47;;
3916;SDS011;1973;50.518;7.318;2023-12-04T11:10:57;15.80;;;11.37;;
3916;SDS011;1973;50.518;7.318;2023-12-04T11:13:28;13.53;;;9.70;;
3916;SDS011;1973;50.518;7.318;2023-12-04T11:15:59;15.97;;;10.57;;
3916;SDS011;1973;50.518;7.318;2023-12-04T11:18:30;14.83;;;9.90;;
3916;SDS011;1973;50.518;7.318;2023-12-04T11:21:03;15.10;;;9.70;;
3916;SDS011;1973;50.518;7.318;2023-12-04T11:23:34;15.33;;;10.63;;
3916;SDS011;1973;50.518;7.318;2023-12-04T11:26:02;17.43;;;10.80;;
3916;SDS011;1973;50.518;7.318;2023-12-04T11:28:31;16.60;;;11.40;;
3916;SDS011;1973;50.518;7.318;2023-12-04T11:30:59;17.90;;;11.50;;
3916;SDS011;1973;50.518;7.318;2023-12-04T11:33:39;15.77;;;11.13;;
3916;SDS011;1973;50.518;7.318;2023-12-04T11:36:07;15.40;;;11.53;;
3916;SDS011;1973;50.518;7.318;2023-12-04T11:38:43;17.87;;;11.83;;
3916;SDS011;1973;50.518;7.318;2023-12-04T11:41:24;16.90;;;10.90;;
3916;SDS011;1973;50.518;7.318;2023-12-04T11:43:54;16.37;;;9.80;;
3916;SDS011;1973;50.518;7.318;2023-12-04T11:46:26;14.33;;;10.97;;
3916;SDS011;1973;50.518;7.318;2023-12-04T11:48:55;14.47;;;10.00;;
3916;SDS011;1973;50.518;7.318;2023-12-04T11:54:14;15.63;;;11.23;;
3916;SDS011;1973;50.518;7.318;2023-12-04T11:59:49;16.23;;;11.03;;
3916;SDS011;1973;50.518;7.318;2023-12-04T12:02:15;15.70;;;10.30;;
3916;SDS011;1973;50.518;7.318;2023-12-04T12:04:43;15.87;;;10.87;;
3916;SDS011;1973;50.518;7.318;2023-12-04T12:07:12;12.40;;;9.10;;
3916;SDS011;1973;50.518;7.318;2023-12-04T12:09:38;15.57;;;10.37;;
3916;SDS011;1973;50.518;7.318;2023-12-04T12:12:05;12.70;;;10.30;;
3916;SDS011;1973;50.518;7.318;2023-12-04T12:14:32;15.70;;;10.57;;
3916;SDS011;1973;50.518;7.318;2023-12-04T12:16:59;16.27;;;10.40;;
3916;SDS011;1973;50.518;7.318;2023-12-04T12:19:27;15.83;;;10.47;;
3916;SDS011;1973;50.518;7.318;2023-12-04T12:21:54;20.20;;;11.63;;
3916;SDS011;1973;50.518;7.318;2023-12-04T12:24:21;15.73;;;10.30;;
3916;SDS011;1973;50.518;7.318;2023-12-04T12:26:50;16.03;;;10.03;;
3916;SDS011;1973;50.518;7.318;2023-12-04T12:29:17;15.27;;;10.10;;
3916;SDS011;1973;50.518;7.318;2023-12-04T12:31:43;12.83;;;10.10;;
3916;SDS011;1973;50.518;7.318;2023-12-04T12:34:12;15.13;;;10.03;;
3916;SDS011;1973;50.518;7.318;2023-12-04T12:36:39;13.77;;;10.50;;
3916;SDS011;1973;50.518;7.318;2023-12-04T12:39:06;12.43;;;10.10;;
3916;SDS011;1973;50.518;7.318;2023-12-04T12:41:35;13.27;;;9.57;;
3916;SDS011;1973;50.518;7.318;2023-12-04T12:44:01;17.63;;;10.20;;
3916;SDS011;1973;50.518;7.318;2023-12-04T12:46:29;14.47;;;10.23;;
3916;SDS011;1973;50.518;7.318;2023-12-04T12:48:56;12.67;;;9.30;;
3916;SDS011;1973;50.518;7.318;2023-12-04T12:51:24;13.20;;;9.50;;
3916;SDS011;1973;50.518;7.318;2023-12-04T12:53:50;13.60;;;9.17;;
3916;SDS011;1973;50.518;7.318;2023-12-04T12:56:18;12.80;;;8.57;;
3916;SDS011;1973;50.518;7.318;2023-12-04T12:58:45;12.67;;;8.70;;
3916;SDS011;1973;50.518;7.318;2023-12-04T13:01:12;16.93;;;10.33;;
3916;SDS011;1973;50.518;7.318;2023-12-04T13:03:39;12.70;;;8.83;;
3916;SDS011;1973;50.518;7.318;2023-12-04T13:06:06;11.43;;;8.73;;
3916;SDS011;1973;50.518;7.318;2023-12-04T13:08:33;12.60;;;8.90;;
3916;SDS011;1973;50.518;7.318;2023-12-04T13:10:59;12.40;;;8.47;;
3916;SDS011;1973;50.518;7.318;2023-12-04T13:13:26;15.00;;;9.27;;
3916;SDS011;1973;50.518;7.318;2023-12-04T13:15:53;11.40;;;8.80;;
3916;SDS011;1973;50.518;7.318;2023-12-04T13:18:20;13.97;;;9.60;;
3916;SDS011;1973;50.518;7.318;2023-12-04T13:20:47;12.53;;;9.07;;
3916;SDS011;1973;50.518;7.318;2023-12-04T13:23:14;12.27;;;8.60;;
3916;SDS011;1973;50.518;7.318;2023-12-04T13:25:40;13.70;;;9.70;;
3916;SDS011;1973;50.518;7.318;2023-12-04T13:28:07;12.70;;;9.00;;
3916;SDS011;1973;50.518;7.318;2023-12-04T13:30:45;12.50;;;8.70;;
3916;SDS011;1973;50.518;7.318;2023-12-04T13:33:11;12.13;;;8.23;;
3916;SDS011;1973;50.518;7.318;2023-12-04T13:35:38;15.77;;;9.90;;
3916;SDS011;1973;50.518;7.318;2023-12-04T13:38:04;13.37;;;8.50;;
3916;SDS011;1973;50.518;7.318;2023-12-04T13:40:40;60.87;;;34.03;;
3916;SDS011;1973;50.518;7.318;2023-12-04T13:43:08;53.33;;;29.30;;
3916;SDS011;1973;50.518;7.318;2023-12-04T13:45:53;23.30;;;12.97;;
3916;SDS011;1973;50.518;7.318;2023-12-04T13:48:21;18.53;;;10.50;;
3916;SDS011;1973;50.518;7.318;2023-12-04T13:50:47;13.40;;;9.40;;
3916;SDS011;1973;50.518;7.318;2023-12-04T13:53:16;11.70;;;7.80;;
3916;SDS011;1973;50.518;7.318;2023-12-04T13:55:47;10.30;;;8.27;;
3916;SDS011;1973;50.518;7.318;2023-12-04T13:58:34;10.47;;;8.60;;
3916;SDS011;1973;50.518;7.318;2023-12-04T14:01:06;13.13;;;8.50;;
3916;SDS011;1973;50.518;7.318;2023-12-04T14:03:41;10.77;;;8.27;;
3916;SDS011;1973;50.518;7.318;2023-12-04T14:06:10;12.53;;;8.20;;
3916;SDS011;1973;50.518;7.318;2023-12-04T14:08:37;10.33;;;7.90;;
3916;SDS011;1973;50.518;7.318;2023-12-04T14:11:04;11.40;;;8.20;;
3916;SDS011;1973;50.518;7.318;2023-12-04T14:13:32;11.93;;;7.60;;
3916;SDS011;1973;50.518;7.318;2023-12-04T14:15:59;10.83;;;8.53;;
3916;SDS011;1973;50.518;7.318;2023-12-04T14:18:27;11.77;;;8.40;;
3916;SDS011;1973;50.518;7.318;2023-12-04T14:20:56;9.97;;;7.50;;
3916;SDS011;1973;50.518;7.318;2023-12-04T14:23:24;11.47;;;8.20;;
3916;SDS011;1973;50.518;7.318;2023-12-04T14:25:50;10.83;;;8.33;;
3916;SDS011;1973;50.518;7.318;2023-12-04T14:28:17;10.80;;;8.70;;
3916;SDS011;1973;50.518;7.318;2023-12-04T14:30:54;9.10;;;7.70;;
3916;SDS011;1973;50.518;7.318;2023-12-04T14:33:21;13.20;;;8.57;;
3916;SDS011;1973;50.518;7.318;2023-12-04T14:35:47;15.70;;;10.23;;
3916;SDS011;1973;50.518;7.318;2023-12-04T14:38:14;13.67;;;9.67;;
3916;SDS011;1973;50.518;7.318;2023-12-04T14:40:40;11.70;;;8.77;;
3916;SDS011;1973;50.518;7.318;2023-12-04T14:43:07;12.50;;;8.03;;
3916;SDS011;1973;50.518;7.318;2023-12-04T14:45:36;16.50;;;9.00;;
3916;SDS011;1973;50.518;7.318;2023-12-04T14:48:02;10.93;;;8.57;;
3916;SDS011;1973;50.518;7.318;2023-12-04T14:50:33;11.80;;;8.20;;
3916;SDS011;1973;50.518;7.318;2023-12-04T14:53:02;13.77;;;9.20;;
3916;SDS011;1973;50.518;7.318;2023-12-04T14:55:42;10.77;;;7.90;;
3916;SDS011;1973;50.518;7.318;2023-12-04T14:58:47;11.17;;;8.70;;
3916;SDS011;1973;50.518;7.318;2023-12-04T15:01:32;11.20;;;8.30;;
3916;SDS011;1973;50.518;7.318;2023-12-04T15:04:17;10.63;;;8.47;;